Time,TemperatureF,DewpointF,PressureIn,WindDirection,WindDirectionDegrees,WindSpeedMPH,WindSpeedGustMPH,Humidity,HourlyPrecipIn,Conditions,Clouds,dailyrainin,SolarRadiationWatts/m^2,SoftwareType,DateUTC
2013-06-01 00:05:00,77.0,60.6,30.03,SW,225,2.0,4.0,57,-99.99,,,0.00,0.00,VWS V14.01,2013-06-01 04:05:00,
2013-06-01 00:10:00,77.0,60.6,30.03,SSW,202,2.0,2.0,57,-99.99,,,0.00,0.00,VWS V14.01,2013-06-01 04:10:00,
2013-06-01 00:15:00,77.0,60.6,30.03,SW,225,4.0,4.0,57,-99.99,,,0.00,0.00,VWS V14.01,2013-06-01 04:15:00,
2013-06-01 00:20:00,77.0,60.6,30.03,SW,225,3.0,4.0,57,-99.99,,,0.00,0.00,VWS V14.01,2013-06-01 04:20:00,
2013-06-01 00:25:00,77.0,61.1,30.03,SSW,202,4.0,4.0,58,-99.99,,,0.00,0.00,VWS V14.01,2013-06-01 04:25:00,
2013-06-01 00:30:00,77.0,61.1,30.03,SSW,202,1.0,2.0,58,-99.99,,,0.00,0.00,VWS V14.01,2013-06-01 04:30:00,
2013-06-01 00:35:00,77.0,61.6,30.03,SSW,202,5.0,5.0,59,-99.99,,,0.00,0.00,VWS V14.01,2013-06-01 04:35:00,
2013-06-01 00:40:00,77.0,62.1,30.02,SSE,158,1.0,2.0,60,-99.99,,,0.00,0.00,VWS V14.01,2013-06-01 04:40:00,
2013-06-01 00:45:00,77.0,62.1,30.02,SE,135,1.0,2.0,60,-99.99,,,0.00,0.00,VWS V14.01,2013-06-01 04:45:00,
2013-06-01 00:50:00,76.0,61.6,30.02,SSW,202,2.0,2.0,61,-99.99,,,0.00,0.00,VWS V14.01,2013-06-01 04:50:00,
2013-06-01 00:55:00,76.0,62.0,30.02,SSW,202,1.0,4.0,62,-99.99,,,0.00,0.00,VWS V14.01,2013-06-01 04:55:00,
2013-06-01 01:00:00,76.0,62.5,30.02,SW,225,3.0,3.0,63,-99.99,,,0.00,0.00,VWS V14.01,2013-06-01 05:00:00,
2013-06-01 01:05:00,75.0,61.6,30.02,SW,225,4.0,4.0,63,-99.99,,,0.00,0.00,VWS V14.01,2013-06-01 05:05:00,
2013-06-01 01:10:00,75.0,61.6,30.02,WSW,248,1.0,2.0,63,-99.99,,,0.00,0.00,VWS V14.01,2013-06-01 05:10:00,
2013-06-01 01:15:00,74.0,62.8,30.02,ESE,112,3.0,4.0,68,-99.99,,,0.00,0.00,VWS V14.01,2013-06-01 05:15:00,
2013-06-01 01:20:00,73.0,63.0,30.02,ENE,68,1.0,1.0,71,-99.99,,,0.00,0.00,VWS V14.01,2013-06-01 05:20:00,
2013-06-01 01:25:00,72.0,62.9,30.02,ENE,68,2.0,2.0,73,-99.99,,,0.00,0.00,VWS V14.01,2013-06-01 05:25:00,
2013-06-01 01:30:00,71.0,62.3,30.02,NE,45,0.0,1.0,74,-99.99,,,0.00,0.00,VWS V14.01,2013-06-01 05:30:00,
2013-06-01 01:35:00,71.0,62.3,30.02,NE,45,0.0,0.0,74,-99.99,,,0.00,0.00,VWS V14.01,2013-06-01 05:35:00,
2013-06-01 01:40:00,71.0,62.7,30.02,NE,45,1.0,1.0,75,-99.99,,,0.00,0.00,VWS V14.01,2013-06-01 05:40:00,
2013-06-01 01:45:00,71.0,62.7,30.02,West,270,0.0,0.0,75,-99.99,,,0.00,0.00,VWS V14.01,2013-06-01 05:45:00,
2013-06-01 01:50:00,71.0,62.7,30.02,WNW,292,1.0,1.0,75,-99.99,,,0.00,0.00,VWS V14.01,2013-06-01 05:50:00,
2013-06-01 01:55:00,71.0,63.1,30.02,East,90,1.0,1.0,76,-99.99,,,0.00,0.00,VWS V14.01,2013-06-01 05:55:00,
2013-06-01 02:00:00,71.0,62.7,30.02,East,90,0.0,0.0,75,-99.99,,,0.00,0.00,VWS V14.01,2013-06-01 06:00:00,
2013-06-01 02:05:00,71.0,63.1,30.02,NE,45,0.0,0.0,76,-99.99,,,0.00,0.00,VWS V14.01,2013-06-01 06:05:00,
2013-06-01 02:10:00,71.0,63.1,30.02,ESE,112,1.0,2.0,76,-99.99,,,0.00,0.00,VWS V14.01,2013-06-01 06:10:00,
2013-06-01 02:15:00,71.0,63.1,30.02,ESE,112,1.0,1.0,76,-99.99,,,0.00,0.00,VWS V14.01,2013-06-01 06:15:00,
2013-06-01 02:20:00,71.0,63.1,30.02,SSE,158,0.0,0.0,76,-99.99,,,0.00,0.00,VWS V14.01,2013-06-01 06:20:00,
2013-06-01 02:25:00,71.0,63.4,30.02,SSW,202,0.0,1.0,77,-99.99,,,0.00,0.00,VWS V14.01,2013-06-01 06:25:00,
2013-06-01 02:30:00,70.0,62.8,30.02,SW,225,1.0,1.0,78,-99.99,,,0.00,0.00,VWS V14.01,2013-06-01 06:30:00,
2013-06-01 02:35:00,70.0,62.8,30.02,WSW,248,1.0,1.0,78,-99.99,,,0.00,0.00,VWS V14.01,2013-06-01 06:35:00,
2013-06-01 02:40:00,70.0,63.2,30.01,ENE,68,1.0,1.0,79,-99.99,,,0.00,0.00,VWS V14.01,2013-06-01 06:40:00,
2013-06-01 02:45:00,70.0,63.5,30.01,ENE,68,2.0,2.0,80,-99.99,,,0.00,0.00,VWS V14.01,2013-06-01 06:45:00,
2013-06-01 02:51:00,69.0,62.6,30.01,NNE,22,3.0,3.0,80,-99.99,,,0.00,0.00,VWS V14.01,2013-06-01 06:51:00,
2013-06-01 02:56:00,70.0,63.5,30.01,West,270,2.0,3.0,80,-99.99,,,0.00,0.00,VWS V14.01,2013-06-01 06:56:00,
2013-06-01 03:01:00,70.0,63.5,30.01,West,270,0.0,0.0,80,-99.99,,,0.00,0.00,VWS V14.01,2013-06-01 07:01:00,
2013-06-01 03:06:00,70.0,63.9,30.01,East,90,0.0,1.0,81,-99.99,,,0.00,0.00,VWS V14.01,2013-06-01 07:06:00,
2013-06-01 03:11:00,69.0,62.9,30.01,ESE,112,3.0,3.0,81,-99.99,,,0.00,0.00,VWS V14.01,2013-06-01 07:11:00,
2013-06-01 03:16:00,69.0,63.6,30.01,SE,135,3.0,3.0,83,-99.99,,,0.00,0.00,VWS V14.01,2013-06-01 07:16:00,
2013-06-01 03:21:00,68.0,63.0,30.01,SSE,158,1.0,2.0,84,-99.99,,,0.00,0.00,VWS V14.01,2013-06-01 07:21:00,
2013-06-01 03:26:00,68.0,63.0,30.01,NE,45,1.0,2.0,84,-99.99,,,0.00,0.00,VWS V14.01,2013-06-01 07:26:00,
2013-06-01 03:31:00,68.0,63.3,30.01,WSW,248,4.0,4.0,85,-99.99,,,0.00,0.00,VWS V14.01,2013-06-01 07:31:00,
2013-06-01 03:36:00,68.0,63.3,30.01,WSW,248,3.0,3.0,85,-99.99,,,0.00,0.00,VWS V14.01,2013-06-01 07:36:00,
2013-06-01 03:41:00,68.0,63.3,30.01,SW,225,1.0,2.0,85,-99.99,,,0.00,0.00,VWS V14.01,2013-06-01 07:41:00,
2013-06-01 03:46:00,68.0,63.3,30.01,ENE,68,2.0,3.0,85,-99.99,,,0.00,0.00,VWS V14.01,2013-06-01 07:46:00,
2013-06-01 03:51:00,68.0,63.3,30.00,NE,45,2.0,3.0,85,-99.99,,,0.00,0.00,VWS V14.01,2013-06-01 07:51:00,
2013-06-01 03:56:00,68.0,63.7,30.00,NE,45,3.0,3.0,86,-99.99,,,0.00,0.00,VWS V14.01,2013-06-01 07:56:00,
2013-06-01 04:01:00,68.0,63.7,30.00,NNE,22,2.0,3.0,86,-99.99,,,0.00,0.00,VWS V14.01,2013-06-01 08:01:00,
2013-06-01 04:06:00,68.0,63.7,29.99,NE,45,3.0,4.0,86,-99.99,,,0.00,0.00,VWS V14.01,2013-06-01 08:06:00,
2013-06-01 04:11:00,68.0,63.7,30.00,ENE,68,1.0,1.0,86,-99.99,,,0.00,0.00,VWS V14.01,2013-06-01 08:11:00,
2013-06-01 04:16:00,68.0,63.7,29.99,WNW,292,2.0,3.0,86,-99.99,,,0.00,0.00,VWS V14.01,2013-06-01 08:16:00,
2013-06-01 04:21:00,68.0,63.3,30.00,WNW,292,2.0,4.0,85,-99.99,,,0.00,0.00,VWS V14.01,2013-06-01 08:21:00,
2013-06-01 04:26:00,68.0,63.3,30.00,SW,225,2.0,2.0,85,-99.99,,,0.00,0.00,VWS V14.01,2013-06-01 08:26:00,
2013-06-01 04:31:00,68.0,63.3,29.99,NE,45,1.0,2.0,85,-99.99,,,0.00,0.00,VWS V14.01,2013-06-01 08:31:00,
2013-06-01 04:36:00,68.0,63.7,29.99,ENE,68,1.0,2.0,86,-99.99,,,0.00,0.00,VWS V14.01,2013-06-01 08:36:00,
2013-06-01 04:41:00,67.0,62.7,29.99,NE,45,2.0,2.0,86,-99.99,,,0.00,0.00,VWS V14.01,2013-06-01 08:41:00,
2013-06-01 04:46:00,67.0,63.0,29.99,NNE,22,3.0,3.0,87,-99.99,,,0.00,0.00,VWS V14.01,2013-06-01 08:46:00,
2013-06-01 04:51:00,67.0,63.0,29.99,NE,45,2.0,3.0,87,-99.99,,,0.00,0.00,VWS V14.01,2013-06-01 08:51:00,
2013-06-01 04:56:00,67.0,63.0,30.00,East,90,1.0,3.0,87,-99.99,,,0.00,0.00,VWS V14.01,2013-06-01 08:56:00,
2013-06-01 05:01:00,67.0,63.0,30.00,West,270,1.0,1.0,87,-99.99,,,0.00,0.00,VWS V14.01,2013-06-01 09:01:00,
2013-06-01 05:06:00,67.0,63.0,30.00,SE,135,2.0,2.0,87,-99.99,,,0.00,0.00,VWS V14.01,2013-06-01 09:06:00,
2013-06-01 05:11:00,67.0,63.0,30.00,South,180,2.0,3.0,87,-99.99,,,0.00,0.00,VWS V14.01,2013-06-01 09:11:00,
2013-06-01 05:16:00,67.0,63.0,30.01,SSW,202,4.0,5.0,87,-99.99,,,0.00,0.00,VWS V14.01,2013-06-01 09:16:00,
2013-06-01 05:21:00,67.0,63.7,30.01,WSW,248,6.0,6.0,89,-99.99,,,0.00,0.00,VWS V14.01,2013-06-01 09:21:00,
2013-06-01 05:26:00,67.0,63.3,30.02,NE,45,2.0,2.0,88,-99.99,,,0.00,0.00,VWS V14.01,2013-06-01 09:26:00,
2013-06-01 05:31:00,67.0,63.3,30.01,ENE,68,3.0,3.0,88,-99.99,,,0.00,0.00,VWS V14.01,2013-06-01 09:31:00,
2013-06-01 05:36:00,67.0,63.3,30.02,NE,45,2.0,2.0,88,-99.99,,,0.00,10.00,VWS V14.01,2013-06-01 09:36:00,
2013-06-01 05:41:00,67.0,63.7,30.02,ESE,112,1.0,1.0,89,-99.99,,,0.00,10.00,VWS V14.01,2013-06-01 09:41:00,
2013-06-01 05:46:00,67.0,63.7,30.02,NE,45,1.0,2.0,89,-99.99,,,0.00,10.00,VWS V14.01,2013-06-01 09:46:00,
2013-06-01 05:51:00,67.0,63.7,30.02,NE,45,3.0,3.0,89,-99.99,,,0.00,20.00,VWS V14.01,2013-06-01 09:51:00,
2013-06-01 05:56:00,66.0,63.0,30.02,ESE,112,1.0,2.0,90,-99.99,,,0.00,30.00,VWS V14.01,2013-06-01 09:56:00,
2013-06-01 06:01:00,66.0,63.0,30.03,SSE,158,2.0,3.0,90,-99.99,,,0.00,30.00,VWS V14.01,2013-06-01 10:01:00,
2013-06-01 06:06:00,66.0,63.0,30.02,SW,225,2.0,3.0,90,-99.99,,,0.00,50.00,VWS V14.01,2013-06-01 10:06:00,
2013-06-01 06:11:00,66.0,63.3,30.02,SW,225,1.0,1.0,91,-99.99,,,0.00,70.00,VWS V14.01,2013-06-01 10:11:00,
2013-06-01 06:16:00,67.0,64.3,30.02,East,90,0.0,1.0,91,-99.99,,,0.00,80.00,VWS V14.01,2013-06-01 10:16:00,
2013-06-01 06:21:00,67.0,64.3,30.02,East,90,1.0,1.0,91,-99.99,,,0.00,90.00,VWS V14.01,2013-06-01 10:21:00,
2013-06-01 06:26:00,67.0,64.0,30.02,East,90,2.0,3.0,90,-99.99,,,0.00,110.00,VWS V14.01,2013-06-01 10:26:00,
2013-06-01 06:31:00,68.0,64.6,30.02,ENE,68,3.0,3.0,89,-99.99,,,0.00,120.00,VWS V14.01,2013-06-01 10:31:00,
2013-06-01 06:36:00,68.0,64.3,30.03,ESE,112,1.0,2.0,88,-99.99,,,0.00,140.00,VWS V14.01,2013-06-01 10:36:00,
2013-06-01 06:41:00,68.0,64.3,30.02,ESE,112,0.0,1.0,88,-99.99,,,0.00,150.00,VWS V14.01,2013-06-01 10:41:00,
2013-06-01 06:46:00,68.0,64.0,30.02,WSW,248,0.0,1.0,87,-99.99,,,0.00,160.00,VWS V14.01,2013-06-01 10:46:00,
2013-06-01 06:51:00,69.0,65.0,30.02,NE,45,2.0,2.0,87,-99.99,,,0.00,170.00,VWS V14.01,2013-06-01 10:51:00,
2013-06-01 06:56:00,69.0,64.6,30.02,East,90,1.0,2.0,86,-99.99,,,0.00,190.00,VWS V14.01,2013-06-01 10:56:00,
2013-06-01 07:01:00,70.0,65.6,30.02,ENE,68,1.0,1.0,86,-99.99,,,0.00,200.00,VWS V14.01,2013-06-01 11:01:00,
2013-06-01 07:06:00,70.0,64.9,30.02,ESE,112,1.0,2.0,84,-99.99,,,0.00,210.00,VWS V14.01,2013-06-01 11:06:00,
2013-06-01 07:11:00,70.0,64.9,30.03,NE,45,0.0,2.0,84,-99.99,,,0.00,230.00,VWS V14.01,2013-06-01 11:11:00,
2013-06-01 07:16:00,70.0,64.6,30.03,East,90,2.0,2.0,83,-99.99,,,0.00,240.00,VWS V14.01,2013-06-01 11:16:00,
2013-06-01 07:21:00,70.0,64.6,30.03,NNE,22,2.0,2.0,83,-99.99,,,0.00,250.00,VWS V14.01,2013-06-01 11:21:00,
2013-06-01 07:26:00,71.0,65.6,30.03,NE,45,2.0,3.0,83,-99.99,,,0.00,260.00,VWS V14.01,2013-06-01 11:26:00,
2013-06-01 07:31:00,71.0,65.2,30.03,ENE,68,1.0,3.0,82,-99.99,,,0.00,280.00,VWS V14.01,2013-06-01 11:31:00,
2013-06-01 07:36:00,72.0,65.9,30.03,East,90,1.0,2.0,81,-99.99,,,0.00,290.00,VWS V14.01,2013-06-01 11:36:00,
2013-06-01 07:41:00,72.0,65.5,30.03,ESE,112,1.0,3.0,80,-99.99,,,0.00,300.00,VWS V14.01,2013-06-01 11:41:00,
2013-06-01 07:46:00,72.0,65.5,30.03,East,90,3.0,3.0,80,-99.99,,,0.00,310.00,VWS V14.01,2013-06-01 11:46:00,
2013-06-01 07:51:00,72.0,65.1,30.03,ESE,112,1.0,2.0,79,-99.99,,,0.00,320.00,VWS V14.01,2013-06-01 11:51:00,
2013-06-01 07:56:00,73.0,66.1,30.02,ESE,112,2.0,2.0,79,-99.99,,,0.00,330.00,VWS V14.01,2013-06-01 11:56:00,
2013-06-01 08:01:00,73.0,66.1,30.02,ESE,112,1.0,2.0,79,-99.99,,,0.00,350.00,VWS V14.01,2013-06-01 12:01:00,
2013-06-01 08:06:00,73.0,66.1,30.02,ESE,112,1.0,1.0,79,-99.99,,,0.00,360.00,VWS V14.01,2013-06-01 12:06:00,
2013-06-01 08:11:00,74.0,66.7,30.02,East,90,2.0,2.0,78,-99.99,,,0.00,370.00,VWS V14.01,2013-06-01 12:11:00,
2013-06-01 08:16:00,74.0,66.0,30.02,ESE,112,1.0,3.0,76,-99.99,,,0.00,380.00,VWS V14.01,2013-06-01 12:16:00,
2013-06-01 08:21:00,75.0,66.6,30.02,East,90,2.0,2.0,75,-99.99,,,0.00,390.00,VWS V14.01,2013-06-01 12:21:00,
2013-06-01 08:26:00,75.0,66.2,30.02,SE,135,1.0,2.0,74,-99.99,,,0.00,410.00,VWS V14.01,2013-06-01 12:26:00,
2013-06-01 08:31:00,76.0,66.7,30.02,SE,135,1.0,3.0,73,-99.99,,,0.00,420.00,VWS V14.01,2013-06-01 12:31:00,
2013-06-01 08:36:00,76.0,66.7,30.02,SE,135,0.0,2.0,73,-99.99,,,0.00,430.00,VWS V14.01,2013-06-01 12:36:00,
2013-06-01 08:41:00,76.0,66.7,30.02,South,180,1.0,3.0,73,-99.99,,,0.00,440.00,VWS V14.01,2013-06-01 12:41:00,
2013-06-01 08:46:00,76.0,66.3,30.02,SSE,158,3.0,4.0,72,-99.99,,,0.00,450.00,VWS V14.01,2013-06-01 12:46:00,
2013-06-01 08:51:00,76.0,66.7,30.02,ESE,112,5.0,5.0,73,-99.99,,,0.00,460.00,VWS V14.01,2013-06-01 12:51:00,
2013-06-01 08:56:00,76.0,66.3,30.02,ESE,112,2.0,4.0,72,-99.99,,,0.00,470.00,VWS V14.01,2013-06-01 12:56:00,
2013-06-01 09:01:00,77.0,67.3,30.02,SE,135,3.0,3.0,72,-99.99,,,0.00,480.00,VWS V14.01,2013-06-01 13:01:00,
2013-06-01 09:06:00,78.0,67.8,30.02,SSE,158,6.0,7.0,71,-99.99,,,0.00,490.00,VWS V14.01,2013-06-01 13:06:00,
2013-06-01 09:11:00,78.0,67.8,30.02,SSW,202,1.0,4.0,71,-99.99,,,0.00,500.00,VWS V14.01,2013-06-01 13:11:00,
2013-06-01 09:16:00,79.0,68.4,30.02,South,180,3.0,4.0,70,-99.99,,,0.00,510.00,VWS V14.01,2013-06-01 13:16:00,
2013-06-01 09:21:00,79.0,67.6,30.02,SE,135,3.0,6.0,68,-99.99,,,0.00,520.00,VWS V14.01,2013-06-01 13:21:00,
2013-06-01 09:26:00,79.0,67.1,30.02,South,180,6.0,7.0,67,-99.99,,,0.00,530.00,VWS V14.01,2013-06-01 13:26:00,
2013-06-01 09:31:00,79.0,67.1,30.02,SSW,202,4.0,7.0,67,-99.99,,,0.00,530.00,VWS V14.01,2013-06-01 13:31:00,
2013-06-01 09:36:00,80.0,67.2,30.02,SSE,158,10.0,12.0,65,-99.99,,,0.00,550.00,VWS V14.01,2013-06-01 13:36:00,
2013-06-01 09:41:00,80.0,67.2,30.02,WSW,248,3.0,5.0,65,-99.99,,,0.00,560.00,VWS V14.01,2013-06-01 13:41:00,
2013-06-01 09:46:00,81.0,67.7,30.02,ESE,112,2.0,7.0,64,-99.99,,,0.00,570.00,VWS V14.01,2013-06-01 13:46:00,
2013-06-01 09:51:00,81.0,65.8,30.01,South,180,7.0,8.0,60,-99.99,,,0.00,580.00,VWS V14.01,2013-06-01 13:51:00,
2013-06-01 09:56:00,81.0,65.8,30.01,SE,135,3.0,4.0,60,-99.99,,,0.00,590.00,VWS V14.01,2013-06-01 13:56:00,
2013-06-01 10:01:00,81.0,65.8,30.01,SSW,202,4.0,8.0,60,-99.99,,,0.00,590.00,VWS V14.01,2013-06-01 14:01:00,
2013-06-01 10:06:00,81.0,66.8,30.01,ESE,112,3.0,7.0,62,-99.99,,,0.00,600.00,VWS V14.01,2013-06-01 14:06:00,
2013-06-01 10:11:00,81.0,66.8,30.01,South,180,4.0,7.0,62,-99.99,,,0.00,610.00,VWS V14.01,2013-06-01 14:11:00,
2013-06-01 10:16:00,82.0,67.7,30.01,East,90,5.0,9.0,62,-99.99,,,0.00,620.00,VWS V14.01,2013-06-01 14:16:00,
2013-06-01 10:21:00,81.0,66.8,30.01,SSE,158,7.0,8.0,62,-99.99,,,0.00,620.00,VWS V14.01,2013-06-01 14:21:00,
2013-06-01 10:26:00,81.0,66.3,30.01,SE,135,8.0,8.0,61,-99.99,,,0.00,630.00,VWS V14.01,2013-06-01 14:26:00,
2013-06-01 10:31:00,81.0,65.8,30.01,SE,135,4.0,7.0,60,-99.99,,,0.00,630.00,VWS V14.01,2013-06-01 14:31:00,
2013-06-01 10:36:00,81.0,65.8,30.01,South,180,4.0,7.0,60,-99.99,,,0.00,640.00,VWS V14.01,2013-06-01 14:36:00,
2013-06-01 10:41:00,82.0,66.8,30.01,South,180,4.0,8.0,60,-99.99,,,0.00,650.00,VWS V14.01,2013-06-01 14:41:00,
2013-06-01 10:46:00,82.0,66.8,30.01,SSE,158,5.0,10.0,60,-99.99,,,0.00,660.00,VWS V14.01,2013-06-01 14:46:00,
2013-06-01 10:51:00,83.0,67.2,30.00,ENE,68,3.0,3.0,59,-99.99,,,0.00,660.00,VWS V14.01,2013-06-01 14:51:00,
2013-06-01 10:56:00,83.0,66.7,30.01,SSW,202,4.0,8.0,58,-99.99,,,0.00,670.00,VWS V14.01,2013-06-01 14:56:00,
2013-06-01 11:01:00,83.0,66.7,30.01,SSW,202,8.0,8.0,58,-99.99,,,0.00,670.00,VWS V14.01,2013-06-01 15:01:00,
2013-06-01 11:06:00,83.0,66.7,30.00,SSE,158,9.0,9.0,58,-99.99,,,0.00,680.00,VWS V14.01,2013-06-01 15:06:00,
2013-06-01 11:11:00,83.0,66.2,30.00,South,180,4.0,9.0,57,-99.99,,,0.00,690.00,VWS V14.01,2013-06-01 15:11:00,
2013-06-01 11:16:00,83.0,66.2,30.01,SE,135,3.0,4.0,57,-99.99,,,0.00,700.00,VWS V14.01,2013-06-01 15:16:00,
2013-06-01 11:21:00,84.0,67.1,30.00,ESE,112,7.0,7.0,57,-99.99,,,0.00,710.00,VWS V14.01,2013-06-01 15:21:00,
2013-06-01 11:26:00,83.0,65.7,30.00,South,180,6.0,6.0,56,-99.99,,,0.00,700.00,VWS V14.01,2013-06-01 15:26:00,
2013-06-01 11:31:00,84.0,66.1,30.00,SW,225,4.0,4.0,55,-99.99,,,0.00,710.00,VWS V14.01,2013-06-01 15:31:00,
2013-06-01 11:36:00,84.0,65.1,30.00,SE,135,9.0,10.0,53,-99.99,,,0.00,710.00,VWS V14.01,2013-06-01 15:36:00,
2013-06-01 11:41:00,85.0,66.0,30.00,SW,225,6.0,6.0,53,-99.99,,,0.00,710.00,VWS V14.01,2013-06-01 15:41:00,
2013-06-01 11:46:00,85.0,64.3,30.00,SE,135,8.0,9.0,50,-99.99,,,0.00,710.00,VWS V14.01,2013-06-01 15:46:00,
2013-06-01 11:51:00,85.0,65.4,29.99,SSE,158,4.0,4.0,52,-99.99,,,0.00,720.00,VWS V14.01,2013-06-01 15:51:00,
2013-06-01 11:56:00,86.0,65.8,29.99,SSW,202,7.0,8.0,51,-99.99,,,0.00,720.00,VWS V14.01,2013-06-01 15:56:00,
2013-06-01 12:01:00,84.0,63.9,29.99,SSE,158,13.0,13.0,51,-99.99,,,0.00,720.00,VWS V14.01,2013-06-01 16:01:00,
2013-06-01 12:06:00,84.0,64.5,29.99,SSE,158,9.0,10.0,52,-99.99,,,0.00,720.00,VWS V14.01,2013-06-01 16:06:00,
2013-06-01 12:11:00,85.0,66.5,29.99,ENE,68,4.0,6.0,54,-99.99,,,0.00,730.00,VWS V14.01,2013-06-01 16:11:00,
2013-06-01 12:16:00,86.0,65.2,29.98,SSE,158,7.0,7.0,50,-99.99,,,0.00,730.00,VWS V14.01,2013-06-01 16:16:00,
2013-06-01 12:21:00,86.0,65.2,29.98,ESE,112,3.0,10.0,50,-99.99,,,0.00,730.00,VWS V14.01,2013-06-01 16:21:00,
2013-06-01 12:26:00,86.0,64.6,29.98,SSW,202,9.0,10.0,49,-99.99,,,0.00,740.00,VWS V14.01,2013-06-01 16:26:00,
2013-06-01 12:31:00,86.0,64.6,29.98,WSW,248,7.0,9.0,49,-99.99,,,0.00,730.00,VWS V14.01,2013-06-01 16:31:00,
2013-06-01 12:36:00,86.0,64.6,29.98,SSW,202,11.0,14.0,49,-99.99,,,0.00,740.00,VWS V14.01,2013-06-01 16:36:00,
2013-06-01 12:41:00,86.0,65.2,29.98,SW,225,11.0,11.0,50,-99.99,,,0.00,740.00,VWS V14.01,2013-06-01 16:41:00,
2013-06-01 12:46:00,87.0,65.6,29.98,ESE,112,4.0,12.0,49,-99.99,,,0.00,760.00,VWS V14.01,2013-06-01 16:46:00,
2013-06-01 12:51:00,88.0,65.3,29.98,SSE,158,6.0,6.0,47,-99.99,,,0.00,750.00,VWS V14.01,2013-06-01 16:51:00,
2013-06-01 12:56:00,87.0,65.0,29.98,SSW,202,5.0,13.0,48,-99.99,,,0.00,720.00,VWS V14.01,2013-06-01 16:56:00,
2013-06-01 13:01:00,87.0,64.3,29.98,SSE,158,9.0,9.0,47,-99.99,,,0.00,200.00,VWS V14.01,2013-06-01 17:01:00,
2013-06-01 13:06:00,87.0,65.0,29.97,SSW,202,12.0,12.0,48,-99.99,,,0.00,730.00,VWS V14.01,2013-06-01 17:06:00,
2013-06-01 13:11:00,87.0,63.1,29.97,SE,135,7.0,16.0,45,-99.99,,,0.00,740.00,VWS V14.01,2013-06-01 17:11:00,
2013-06-01 13:16:00,87.0,63.7,29.97,SSE,158,9.0,11.0,46,-99.99,,,0.00,740.00,VWS V14.01,2013-06-01 17:16:00,
2013-06-01 13:21:00,87.0,64.3,29.97,SSE,158,7.0,8.0,47,-99.99,,,0.00,770.00,VWS V14.01,2013-06-01 17:21:00,
2013-06-01 13:26:00,88.0,64.7,29.97,SE,135,6.0,11.0,46,-99.99,,,0.00,730.00,VWS V14.01,2013-06-01 17:26:00,
2013-06-01 13:31:00,87.0,63.7,29.97,SE,135,10.0,14.0,46,-99.99,,,0.00,730.00,VWS V14.01,2013-06-01 17:31:00,
2013-06-01 13:36:00,88.0,65.3,29.97,SSE,158,7.0,7.0,47,-99.99,,,0.00,730.00,VWS V14.01,2013-06-01 17:36:00,
2013-06-01 13:41:00,88.0,64.7,29.96,SE,135,11.0,12.0,46,-99.99,,,0.00,730.00,VWS V14.01,2013-06-01 17:41:00,
2013-06-01 13:46:00,88.0,64.7,29.96,ENE,68,5.0,10.0,46,-99.99,,,0.00,730.00,VWS V14.01,2013-06-01 17:46:00,
2013-06-01 13:51:00,88.0,64.7,29.96,South,180,4.0,9.0,46,-99.99,,,0.00,720.00,VWS V14.01,2013-06-01 17:51:00,
2013-06-01 13:56:00,88.0,64.0,29.96,South,180,19.0,19.0,45,-99.99,,,0.00,720.00,VWS V14.01,2013-06-01 17:56:00,
2013-06-01 14:01:00,87.0,63.1,29.96,SSE,158,12.0,16.0,45,-99.99,,,0.00,720.00,VWS V14.01,2013-06-01 18:01:00,
2013-06-01 14:06:00,88.0,64.7,29.96,SSW,202,6.0,13.0,46,-99.99,,,0.00,710.00,VWS V14.01,2013-06-01 18:06:00,
2013-06-01 14:11:00,88.0,64.7,29.96,SSE,158,10.0,10.0,46,-99.99,,,0.00,700.00,VWS V14.01,2013-06-01 18:11:00,
2013-06-01 14:16:00,88.0,64.7,29.96,SE,135,3.0,9.0,46,-99.99,,,0.00,700.00,VWS V14.01,2013-06-01 18:16:00,
2013-06-01 14:21:00,89.0,65.6,29.95,SSE,158,5.0,9.0,46,-99.99,,,0.00,700.00,VWS V14.01,2013-06-01 18:21:00,
2013-06-01 14:26:00,88.0,64.0,29.95,SSE,158,14.0,14.0,45,-99.99,,,0.00,690.00,VWS V14.01,2013-06-01 18:26:00,
2013-06-01 14:31:00,89.0,65.6,29.95,SE,135,10.0,14.0,46,-99.99,,,0.00,700.00,VWS V14.01,2013-06-01 18:31:00,
2013-06-01 14:36:00,89.0,64.9,29.95,South,180,4.0,11.0,45,-99.99,,,0.00,680.00,VWS V14.01,2013-06-01 18:36:00,
2013-06-01 14:41:00,89.0,63.6,29.95,SE,135,13.0,18.0,43,-99.99,,,0.00,670.00,VWS V14.01,2013-06-01 18:41:00,
2013-06-01 14:46:00,89.0,64.9,29.95,WSW,248,7.0,8.0,45,-99.99,,,0.00,670.00,VWS V14.01,2013-06-01 18:46:00,
2013-06-01 14:51:00,89.0,64.9,29.95,South,180,7.0,15.0,45,-99.99,,,0.00,660.00,VWS V14.01,2013-06-01 18:51:00,
2013-06-01 14:56:00,89.0,64.3,29.95,South,180,7.0,15.0,44,-99.99,,,0.00,680.00,VWS V14.01,2013-06-01 18:56:00,
2013-06-01 15:01:00,89.0,64.3,29.95,SE,135,14.0,20.0,44,-99.99,,,0.00,660.00,VWS V14.01,2013-06-01 19:01:00,
2013-06-01 15:06:00,89.0,64.3,29.95,SE,135,17.0,19.0,44,-99.99,,,0.00,550.00,VWS V14.01,2013-06-01 19:06:00,
2013-06-01 15:11:00,89.0,64.3,29.95,SE,135,4.0,22.0,44,-99.99,,,0.00,670.00,VWS V14.01,2013-06-01 19:11:00,
2013-06-01 15:16:00,89.0,64.3,29.94,SSE,158,18.0,18.0,44,-99.99,,,0.00,660.00,VWS V14.01,2013-06-01 19:16:00,
2013-06-01 15:21:00,89.0,64.9,29.94,ESE,112,7.0,10.0,45,-99.99,,,0.00,640.00,VWS V14.01,2013-06-01 19:21:00,
2013-06-01 15:26:00,90.0,64.5,29.94,SSE,158,4.0,15.0,43,-99.99,,,0.00,660.00,VWS V14.01,2013-06-01 19:26:00,
2013-06-01 15:31:00,90.0,65.2,29.94,South,180,8.0,9.0,44,-99.99,,,0.00,340.00,VWS V14.01,2013-06-01 19:31:00,
2013-06-01 15:36:00,89.0,64.3,29.93,SSE,158,13.0,14.0,44,-99.99,,,0.00,670.00,VWS V14.01,2013-06-01 19:36:00,
2013-06-01 15:41:00,89.0,64.3,29.93,SE,135,8.0,22.0,44,-99.99,,,0.00,650.00,VWS V14.01,2013-06-01 19:41:00,
2013-06-01 15:46:00,89.0,63.6,29.93,SE,135,20.0,20.0,43,-99.99,,,0.00,650.00,VWS V14.01,2013-06-01 19:46:00,
2013-06-01 15:51:00,89.0,64.9,29.93,ESE,112,9.0,9.0,45,-99.99,,,0.00,580.00,VWS V14.01,2013-06-01 19:51:00,
2013-06-01 15:56:00,89.0,64.9,29.93,ENE,68,9.0,11.0,45,-99.99,,,0.00,580.00,VWS V14.01,2013-06-01 19:56:00,
2013-06-01 16:01:00,90.0,65.2,29.93,SSW,202,6.0,13.0,44,-99.99,,,0.00,580.00,VWS V14.01,2013-06-01 20:01:00,
2013-06-01 16:06:00,89.0,63.6,29.93,SSW,202,14.0,17.0,43,-99.99,,,0.00,210.00,VWS V14.01,2013-06-01 20:06:00,
2013-06-01 16:11:00,89.0,64.9,29.93,SSE,158,8.0,8.0,45,-99.99,,,0.00,580.00,VWS V14.01,2013-06-01 20:11:00,
2013-06-01 16:16:00,89.0,64.3,29.93,SSE,158,6.0,6.0,44,-99.99,,,0.00,570.00,VWS V14.01,2013-06-01 20:16:00,
2013-06-01 16:21:00,89.0,64.3,29.93,ESE,112,6.0,16.0,44,-99.99,,,0.00,540.00,VWS V14.01,2013-06-01 20:21:00,
2013-06-01 16:26:00,89.0,64.3,29.93,SE,135,9.0,12.0,44,-99.99,,,0.00,550.00,VWS V14.01,2013-06-01 20:26:00,
2013-06-01 16:31:00,90.0,65.2,29.93,SE,135,17.0,17.0,44,-99.99,,,0.00,510.00,VWS V14.01,2013-06-01 20:31:00,
2013-06-01 16:36:00,89.0,64.9,29.92,SSW,202,5.0,5.0,45,-99.99,,,0.00,480.00,VWS V14.01,2013-06-01 20:36:00,
2013-06-01 16:41:00,90.0,65.2,29.92,SSW,202,6.0,7.0,44,-99.99,,,0.00,420.00,VWS V14.01,2013-06-01 20:41:00,
2013-06-01 16:46:00,90.0,65.2,29.92,South,180,10.0,15.0,44,-99.99,,,0.00,430.00,VWS V14.01,2013-06-01 20:46:00,
2013-06-01 16:51:00,90.0,65.2,29.92,SE,135,5.0,7.0,44,-99.99,,,0.00,430.00,VWS V14.01,2013-06-01 20:51:00,
2013-06-01 16:56:00,89.0,64.9,29.92,East,90,4.0,5.0,45,-99.99,,,0.00,450.00,VWS V14.01,2013-06-01 20:56:00,
2013-06-01 17:01:00,89.0,64.3,29.92,South,180,9.0,12.0,44,-99.99,,,0.00,380.00,VWS V14.01,2013-06-01 21:01:00,
2013-06-01 17:06:00,89.0,64.9,29.92,SE,135,7.0,7.0,45,-99.99,,,0.00,430.00,VWS V14.01,2013-06-01 21:06:00,
2013-06-01 17:11:00,89.0,65.6,29.92,SE,135,13.0,13.0,46,-99.99,,,0.00,360.00,VWS V14.01,2013-06-01 21:11:00,
2013-06-01 17:16:00,89.0,64.9,29.92,SE,135,20.0,20.0,45,-99.99,,,0.00,280.00,VWS V14.01,2013-06-01 21:16:00,
2013-06-01 17:21:00,89.0,65.6,29.92,ESE,112,9.0,9.0,46,-99.99,,,0.00,300.00,VWS V14.01,2013-06-01 21:21:00,
2013-06-01 17:26:00,89.0,65.6,29.92,SSE,158,11.0,11.0,46,-99.99,,,0.00,350.00,VWS V14.01,2013-06-01 21:26:00,
2013-06-01 17:31:00,89.0,66.2,29.92,SE,135,5.0,6.0,47,-99.99,,,0.00,260.00,VWS V14.01,2013-06-01 21:31:00,
2013-06-01 17:36:00,89.0,66.8,29.92,SSE,158,6.0,13.0,48,-99.99,,,0.00,280.00,VWS V14.01,2013-06-01 21:36:00,
2013-06-01 17:41:00,88.0,65.3,29.92,SE,135,9.0,9.0,47,-99.99,,,0.00,330.00,VWS V14.01,2013-06-01 21:41:00,
2013-06-01 17:47:00,89.0,66.2,29.92,SSE,158,8.0,8.0,47,-99.99,,,0.00,300.00,VWS V14.01,2013-06-01 21:47:00,
2013-06-01 17:52:00,89.0,66.2,29.92,SSE,158,10.0,10.0,47,-99.99,,,0.00,310.00,VWS V14.01,2013-06-01 21:52:00,
2013-06-01 17:57:00,88.0,65.9,29.91,SSE,158,10.0,15.0,48,-99.99,,,0.00,320.00,VWS V14.01,2013-06-01 21:57:00,
2013-06-01 18:02:00,88.0,66.5,29.91,ESE,112,12.0,13.0,49,-99.99,,,0.00,290.00,VWS V14.01,2013-06-01 22:02:00,
2013-06-01 18:07:00,88.0,66.5,29.91,South,180,14.0,18.0,49,-99.99,,,0.00,270.00,VWS V14.01,2013-06-01 22:07:00,
2013-06-01 18:12:00,88.0,66.5,29.91,ESE,112,9.0,17.0,49,-99.99,,,0.00,250.00,VWS V14.01,2013-06-01 22:12:00,
2013-06-01 18:17:00,88.0,66.5,29.91,South,180,9.0,13.0,49,-99.99,,,0.00,230.00,VWS V14.01,2013-06-01 22:17:00,
2013-06-01 18:22:00,88.0,66.5,29.91,ESE,112,11.0,18.0,49,-99.99,,,0.00,190.00,VWS V14.01,2013-06-01 22:22:00,
2013-06-01 18:27:00,88.0,66.5,29.91,East,90,3.0,7.0,49,-99.99,,,0.00,180.00,VWS V14.01,2013-06-01 22:27:00,
2013-06-01 18:32:00,88.0,66.5,29.91,SSE,158,15.0,15.0,49,-99.99,,,0.00,170.00,VWS V14.01,2013-06-01 22:32:00,
2013-06-01 18:37:00,87.0,66.1,29.91,SE,135,7.0,13.0,50,-99.99,,,0.00,160.00,VWS V14.01,2013-06-01 22:37:00,
2013-06-01 18:42:00,87.0,66.1,29.91,SSE,158,12.0,15.0,50,-99.99,,,0.00,140.00,VWS V14.01,2013-06-01 22:42:00,
2013-06-01 18:47:00,87.0,66.1,29.91,ENE,68,6.0,10.0,50,-99.99,,,0.00,150.00,VWS V14.01,2013-06-01 22:47:00,
2013-06-01 18:52:00,87.0,66.7,29.91,South,180,12.0,13.0,51,-99.99,,,0.00,150.00,VWS V14.01,2013-06-01 22:52:00,
2013-06-01 18:57:00,87.0,67.3,29.91,ESE,112,11.0,11.0,52,-99.99,,,0.00,140.00,VWS V14.01,2013-06-01 22:57:00,
2013-06-01 19:02:00,87.0,67.3,29.91,East,90,5.0,10.0,52,-99.99,,,0.00,170.00,VWS V14.01,2013-06-01 23:02:00,
2013-06-01 19:07:00,87.0,67.3,29.91,SSE,158,7.0,13.0,52,-99.99,,,0.00,140.00,VWS V14.01,2013-06-01 23:07:00,
2013-06-01 19:12:00,87.0,67.3,29.91,SE,135,6.0,11.0,52,-99.99,,,0.00,130.00,VWS V14.01,2013-06-01 23:12:00,
2013-06-01 19:17:00,87.0,67.3,29.91,SSE,158,10.0,14.0,52,-99.99,,,0.00,120.00,VWS V14.01,2013-06-01 23:17:00,
2013-06-01 19:22:00,87.0,67.3,29.91,SSE,158,3.0,10.0,52,-99.99,,,0.00,130.00,VWS V14.01,2013-06-01 23:22:00,
2013-06-01 19:27:00,87.0,67.8,29.91,SSE,158,6.0,10.0,53,-99.99,,,0.00,120.00,VWS V14.01,2013-06-01 23:27:00,
2013-06-01 19:32:00,86.0,66.9,29.91,ESE,112,6.0,14.0,53,-99.99,,,0.00,90.00,VWS V14.01,2013-06-01 23:32:00,
2013-06-01 19:37:00,86.0,66.9,29.91,SSE,158,3.0,5.0,53,-99.99,,,0.00,70.00,VWS V14.01,2013-06-01 23:37:00,
2013-06-01 19:42:00,86.0,67.4,29.91,SE,135,7.0,8.0,54,-99.99,,,0.00,50.00,VWS V14.01,2013-06-01 23:42:00,
2013-06-01 19:47:00,86.0,67.4,29.91,SE,135,5.0,7.0,54,-99.99,,,0.00,40.00,VWS V14.01,2013-06-01 23:47:00,
2013-06-01 19:52:00,86.0,68.0,29.91,SSE,158,6.0,6.0,55,-99.99,,,0.00,40.00,VWS V14.01,2013-06-01 23:52:00,
2013-06-01 19:57:00,86.0,68.0,29.91,SE,135,7.0,7.0,55,-99.99,,,0.00,30.00,VWS V14.01,2013-06-01 23:57:00,
2013-06-01 20:02:00,85.0,67.0,29.91,SE,135,5.0,8.0,55,-99.99,,,0.00,20.00,VWS V14.01,2013-06-02 00:02:00,
2013-06-01 20:07:00,85.0,67.6,29.91,ESE,112,2.0,5.0,56,-99.99,,,0.00,30.00,VWS V14.01,2013-06-02 00:07:00,
2013-06-01 20:12:00,85.0,67.6,29.91,East,90,4.0,7.0,56,-99.99,,,0.00,20.00,VWS V14.01,2013-06-02 00:12:00,
2013-06-01 20:17:00,85.0,67.6,29.91,SE,135,6.0,10.0,56,-99.99,,,0.00,10.00,VWS V14.01,2013-06-02 00:17:00,
2013-06-01 20:22:00,85.0,67.6,29.91,ESE,112,5.0,7.0,56,-99.99,,,0.00,10.00,VWS V14.01,2013-06-02 00:22:00,
2013-06-01 20:27:00,85.0,67.6,29.91,SE,135,3.0,7.0,56,-99.99,,,0.00,0.00,VWS V14.01,2013-06-02 00:27:00,
2013-06-01 20:32:00,84.0,67.1,29.91,SE,135,6.0,7.0,57,-99.99,,,0.00,0.00,VWS V14.01,2013-06-02 00:32:00,
2013-06-01 20:37:00,84.0,67.7,29.91,East,90,5.0,7.0,58,-99.99,,,0.00,0.00,VWS V14.01,2013-06-02 00:37:00,
2013-06-01 20:42:00,84.0,67.7,29.91,SE,135,6.0,8.0,58,-99.99,,,0.00,0.00,VWS V14.01,2013-06-02 00:42:00,
2013-06-01 20:47:00,83.0,66.7,29.91,SE,135,5.0,6.0,58,-99.99,,,0.00,0.00,VWS V14.01,2013-06-02 00:47:00,
2013-06-01 20:52:00,83.0,66.7,29.91,SE,135,6.0,7.0,58,-99.99,,,0.00,0.00,VWS V14.01,2013-06-02 00:52:00,
2013-06-01 20:57:00,83.0,66.7,29.91,ESE,112,4.0,7.0,58,-99.99,,,0.00,0.00,VWS V14.01,2013-06-02 00:57:00,
2013-06-01 21:02:00,83.0,66.7,29.91,SSE,158,8.0,8.0,58,-99.99,,,0.00,0.00,VWS V14.01,2013-06-02 01:02:00,
2013-06-01 21:07:00,83.0,66.7,29.91,SSE,158,6.0,7.0,58,-99.99,,,0.00,0.00,VWS V14.01,2013-06-02 01:07:00,
2013-06-01 21:12:00,83.0,66.2,29.91,SE,135,5.0,6.0,57,-99.99,,,0.00,0.00,VWS V14.01,2013-06-02 01:12:00,
2013-06-01 21:17:00,83.0,66.2,29.91,SE,135,2.0,4.0,57,-99.99,,,0.00,0.00,VWS V14.01,2013-06-02 01:17:00,
2013-06-01 21:22:00,83.0,66.2,29.91,SSE,158,6.0,7.0,57,-99.99,,,0.00,0.00,VWS V14.01,2013-06-02 01:22:00,
2013-06-01 21:27:00,83.0,66.2,29.91,SSE,158,8.0,8.0,57,-99.99,,,0.00,0.00,VWS V14.01,2013-06-02 01:27:00,
2013-06-01 21:32:00,83.0,66.2,29.91,SSE,158,3.0,4.0,57,-99.99,,,0.00,0.00,VWS V14.01,2013-06-02 01:32:00,
2013-06-01 21:37:00,82.0,65.3,29.91,SSE,158,7.0,8.0,57,-99.99,,,0.00,0.00,VWS V14.01,2013-06-02 01:37:00,
2013-06-01 21:42:00,82.0,65.8,29.91,East,90,4.0,4.0,58,-99.99,,,0.00,0.00,VWS V14.01,2013-06-02 01:42:00,
2013-06-01 21:47:00,82.0,65.8,29.91,SE,135,4.0,5.0,58,-99.99,,,0.00,0.00,VWS V14.01,2013-06-02 01:47:00,
2013-06-01 21:52:00,82.0,65.8,29.91,ESE,112,5.0,5.0,58,-99.99,,,0.00,0.00,VWS V14.01,2013-06-02 01:52:00,
2013-06-01 21:57:00,82.0,65.8,29.91,ESE,112,4.0,7.0,58,-99.99,,,0.00,0.00,VWS V14.01,2013-06-02 01:57:00,
2013-06-01 22:02:00,82.0,66.3,29.91,ESE,112,4.0,6.0,59,-99.99,,,0.00,0.00,VWS V14.01,2013-06-02 02:02:00,
2013-06-01 22:07:00,81.0,65.3,29.91,SE,135,6.0,8.0,59,-99.99,,,0.00,0.00,VWS V14.01,2013-06-02 02:07:00,
2013-06-01 22:12:00,81.0,65.3,29.91,SE,135,7.0,10.0,59,-99.99,,,0.00,0.00,VWS V14.01,2013-06-02 02:12:00,
2013-06-01 22:17:00,81.0,65.8,29.91,SE,135,7.0,8.0,60,-99.99,,,0.00,0.00,VWS V14.01,2013-06-02 02:17:00,
2013-06-01 22:22:00,81.0,65.8,29.91,ESE,112,7.0,8.0,60,-99.99,,,0.00,0.00,VWS V14.01,2013-06-02 02:22:00,
2013-06-01 22:27:00,81.0,65.8,29.91,SE,135,5.0,7.0,60,-99.99,,,0.00,0.00,VWS V14.01,2013-06-02 02:27:00,
2013-06-01 22:32:00,81.0,66.3,29.90,ESE,112,7.0,9.0,61,-99.99,,,0.00,0.00,VWS V14.01,2013-06-02 02:32:00,
2013-06-01 22:37:00,81.0,66.3,29.90,ESE,112,5.0,10.0,61,-99.99,,,0.00,0.00,VWS V14.01,2013-06-02 02:37:00,
2013-06-01 22:42:00,81.0,66.3,29.90,SE,135,5.0,8.0,61,-99.99,,,0.00,0.00,VWS V14.01,2013-06-02 02:42:00,
2013-06-01 22:47:00,81.0,66.3,29.90,ESE,112,7.0,13.0,61,-99.99,,,0.00,0.00,VWS V14.01,2013-06-02 02:47:00,
2013-06-01 22:52:00,81.0,66.3,29.90,SE,135,9.0,10.0,61,-99.99,,,0.00,0.00,VWS V14.01,2013-06-02 02:52:00,
2013-06-01 22:56:00,80.0,68.1,29.89,East,90,3.0,5.0,67,-99.99,,,0.00,0.00,VWS V14.01,2013-06-02 02:56:00,
2013-06-01 22:57:00,81.0,66.3,29.90,ESE,112,6.0,10.0,61,-99.99,,,0.00,0.00,VWS V14.01,2013-06-02 02:57:00,
2013-06-01 22:58:00,80.0,68.1,29.89,ESE,112,6.0,8.0,67,-99.99,,,0.00,0.00,VWS V14.01,2013-06-02 02:58:00,
2013-06-01 22:59:00,80.0,68.1,29.89,SSE,158,7.0,7.0,67,-99.99,,,0.00,0.00,VWS V14.01,2013-06-02 02:59:00,
2013-06-01 23:00:00,80.0,68.1,29.89,SE,135,5.0,8.0,67,-99.99,,,0.00,0.00,VWS V14.01,2013-06-02 03:00:00,
2013-06-01 23:01:00,80.0,68.1,29.89,SE,135,7.0,8.0,67,-99.99,,,0.00,0.00,VWS V14.01,2013-06-02 03:01:00,
2013-06-01 23:02:00,81.0,66.8,29.90,ESE,112,6.0,7.0,62,-99.99,,,0.00,0.00,VWS V14.01,2013-06-02 03:02:00,
2013-06-01 23:07:00,81.0,67.2,29.90,ESE,112,9.0,9.0,63,-99.99,,,0.00,0.00,VWS V14.01,2013-06-02 03:07:00,
2013-06-01 23:12:00,80.0,66.7,29.90,SE,135,6.0,9.0,64,-99.99,,,0.00,0.00,VWS V14.01,2013-06-02 03:12:00,
2013-06-01 23:17:00,80.0,66.7,29.90,SE,135,8.0,9.0,64,-99.99,,,0.00,0.00,VWS V14.01,2013-06-02 03:17:00,
2013-06-01 23:22:00,80.0,67.2,29.90,East,90,6.0,10.0,65,-99.99,,,0.00,0.00,VWS V14.01,2013-06-02 03:22:00,
2013-06-01 23:27:00,80.0,67.6,29.90,SE,135,7.0,10.0,66,-99.99,,,0.00,0.00,VWS V14.01,2013-06-02 03:27:00,
2013-06-01 23:32:00,80.0,67.6,29.89,East,90,5.0,10.0,66,-99.99,,,0.00,0.00,VWS V14.01,2013-06-02 03:32:00,
2013-06-01 23:37:00,80.0,67.6,29.90,SSE,158,7.0,10.0,66,-99.99,,,0.00,0.00,VWS V14.01,2013-06-02 03:37:00,
2013-06-01 23:42:00,80.0,67.6,29.89,SE,135,6.0,10.0,66,-99.99,,,0.00,0.00,VWS V14.01,2013-06-02 03:42:00,
2013-06-01 23:47:00,80.0,68.1,29.89,ESE,112,4.0,8.0,67,-99.99,,,0.00,0.00,VWS V14.01,2013-06-02 03:47:00,
2013-06-01 23:52:00,80.0,68.1,29.89,SE,135,5.0,9.0,67,-99.99,,,0.00,0.00,VWS V14.01,2013-06-02 03:52:00,
2013-06-01 23:57:00,80.0,68.1,29.89,SSE,158,6.0,7.0,67,-99.99,,,0.00,0.00,VWS V14.01,2013-06-02 03:57:00,